sensor_id;sensor_type;location;lat;lon;timestamp;pressure;altitude;pressure_sealevel;temperature;humidity
63582;BME280;49727;51.078;17.066;2023-03-16T00:13:31;100560.03;;;-1.18;70.61
63582;BME280;49727;51.078;17.066;2023-03-16T00:28:32;100571.50;;;-1.21;71.04
63582;BME280;49727;51.078;17.066;2023-03-16T00:43:36;100586.69;;;-1.27;70.96
63582;BME280;49727;51.078;17.066;2023-03-16T00:58:41;100590.91;;;-1.25;70.97
63582;BME280;49727;51.078;17.066;2023-03-16T01:13:42;100604.06;;;-1.26;71.37
63582;BME280;49727;51.078;17.066;2023-03-16T01:28:43;100615.63;;;-1.30;71.56
63582;BME280;49727;51.078;17.066;2023-03-16T01:43:43;100635.78;;;-1.32;72.24
63582;BME280;49727;51.078;17.066;2023-03-16T01:58:44;100632.75;;;-1.41;72.42
63582;BME280;49727;51.078;17.066;2023-03-16T02:13:45;100640.06;;;-1.47;72.62
63582;BME280;49727;51.078;17.066;2023-03-16T02:30:05;100650.16;;;-1.57;72.50
63582;BME280;49727;51.078;17.066;2023-03-16T02:44:35;100654.91;;;-1.65;73.45
63582;BME280;49727;51.078;17.066;2023-03-16T02:59:36;100667.06;;;-1.64;73.02
63582;BME280;49727;51.078;17.066;2023-03-16T03:14:36;100679.50;;;-1.70;73.25
63582;BME280;49727;51.078;17.066;2023-03-16T03:29:37;100681.84;;;-1.81;74.00
63582;BME280;49727;51.078;17.066;2023-03-16T03:44:37;100688.75;;;-1.80;74.45
63582;BME280;49727;51.078;17.066;2023-03-16T03:59:38;100694.44;;;-1.89;74.34
63582;BME280;49727;51.078;17.066;2023-03-16T04:14:44;100706.28;;;-1.99;74.36
63582;BME280;49727;51.078;17.066;2023-03-16T04:29:44;100719.81;;;-2.09;74.34
63582;BME280;49727;51.078;17.066;2023-03-16T04:44:44;100737.28;;;-2.11;74.53
63582;BME280;49727;51.078;17.066;2023-03-16T04:59:45;100733.94;;;-2.13;74.98
63582;BME280;49727;51.078;17.066;2023-03-16T05:14:45;100756.44;;;-2.10;75.49
63582;BME280;49727;51.078;17.066;2023-03-16T05:29:46;100755.28;;;-1.87;75.48
63582;BME280;49727;51.078;17.066;2023-03-16T05:44:47;100762.09;;;-1.32;75.95
63582;BME280;49727;51.078;17.066;2023-03-16T05:59:47;100778.56;;;-0.48;75.96
63582;BME280;49727;51.078;17.066;2023-03-16T06:14:47;100790.47;;;0.50;75.49
63582;BME280;49727;51.078;17.066;2023-03-16T06:29:48;100806.13;;;1.67;73.76
63582;BME280;49727;51.078;17.066;2023-03-16T06:44:48;100804.91;;;2.79;72.43
63582;BME280;49727;51.078;17.066;2023-03-16T06:59:49;100821.03;;;4.00;71.09
63582;BME280;49727;51.078;17.066;2023-03-16T07:14:50;100825.44;;;5.40;69.89
63582;BME280;49727;51.078;17.066;2023-03-16T07:29:50;100836.94;;;6.70;66.96
63582;BME280;49727;51.078;17.066;2023-03-16T07:44:53;100842.66;;;7.18;63.48
63582;BME280;49727;51.078;17.066;2023-03-16T07:59:54;100851.00;;;8.92;61.82
63582;BME280;49727;51.078;17.066;2023-03-16T08:14:54;100859.97;;;9.94;57.00
63582;BME280;49727;51.078;17.066;2023-03-16T08:29:55;100872.38;;;10.94;53.88
63582;BME280;49727;51.078;17.066;2023-03-16T08:44:55;100878.19;;;11.42;48.25
63582;BME280;49727;51.078;17.066;2023-03-16T08:59:56;100886.25;;;13.97;45.59
63582;BME280;49727;51.078;17.066;2023-03-16T09:14:57;100898.59;;;27.97;27.79
63582;BME280;49727;51.078;17.066;2023-03-16T09:29:58;100890.31;;;33.34;17.19
63582;BME280;49727;51.078;17.066;2023-03-16T10:15:28;100898.81;;;32.44;13.30
63582;BME280;49727;51.078;17.066;2023-03-16T10:30:36;100895.84;;;27.34;16.27
63582;BME280;49727;51.078;17.066;2023-03-16T10:45:37;100895.34;;;23.28;17.63
63582;BME280;49727;51.078;17.066;2023-03-16T11:00:41;100884.44;;;29.90;12.92
63582;BME280;49727;51.078;17.066;2023-03-16T11:46:22;100858.16;;;42.19;7.22
63582;BME280;49727;51.078;17.066;2023-03-16T12:01:31;100834.63;;;48.25;5.18
63582;BME280;49727;51.078;17.066;2023-03-16T12:16:45;100822.91;;;44.39;5.14
63582;BME280;49727;51.078;17.066;2023-03-16T12:31:52;100815.53;;;42.25;5.56
63582;BME280;49727;51.078;17.066;2023-03-16T13:02:19;100816.50;;;44.39;5.15
63582;BME280;49727;51.078;17.066;2023-03-16T13:17:29;100812.97;;;40.55;6.39
63582;BME280;49727;51.078;17.066;2023-03-16T13:32:31;100810.22;;;39.82;6.54
63582;BME280;49727;51.078;17.066;2023-03-16T13:47:32;100788.53;;;34.78;8.65
63582;BME280;49727;51.078;17.066;2023-03-16T14:02:39;100797.66;;;36.23;7.30
63582;BME280;49727;51.078;17.066;2023-03-16T14:17:41;100787.38;;;34.38;7.87
63582;BME280;49727;51.078;17.066;2023-03-16T14:33:02;100766.84;;;23.74;13.48
63582;BME280;49727;51.078;17.066;2023-03-16T14:48:06;100758.31;;;17.97;17.79
63582;BME280;49727;51.078;17.066;2023-03-16T15:03:16;100759.91;;;16.03;19.92
63582;BME280;49727;51.078;17.066;2023-03-16T15:18:16;100763.09;;;14.12;22.09
63582;BME280;49727;51.078;17.066;2023-03-16T15:33:17;100758.84;;;11.60;24.93
63582;BME280;49727;51.078;17.066;2023-03-16T15:48:17;100766.13;;;10.46;26.31
63582;BME280;49727;51.078;17.066;2023-03-16T16:03:24;100778.56;;;9.56;27.48
63582;BME280;49727;51.078;17.066;2023-03-16T16:33:32;100783.72;;;8.05;30.32
63582;BME280;49727;51.078;17.066;2023-03-16T16:48:36;100787.81;;;7.08;31.92
63582;BME280;49727;51.078;17.066;2023-03-16T17:03:37;100797.81;;;6.32;32.62
63582;BME280;49727;51.078;17.066;2023-03-16T17:18:38;100810.09;;;5.78;34.09
63582;BME280;49727;51.078;17.066;2023-03-16T17:33:38;100822.19;;;5.25;35.89
63582;BME280;49727;51.078;17.066;2023-03-16T17:48:38;100832.69;;;4.80;36.99
63582;BME280;49727;51.078;17.066;2023-03-16T18:03:39;100833.56;;;4.45;38.71
63582;BME280;49727;51.078;17.066;2023-03-16T18:18:43;100840.28;;;4.13;39.82
63582;BME280;49727;51.078;17.066;2023-03-16T18:33:44;100847.34;;;3.76;40.69
63582;BME280;49727;51.078;17.066;2023-03-16T18:48:46;100841.13;;;3.39;41.77
63582;BME280;49727;51.078;17.066;2023-03-16T19:03:47;100843.78;;;3.14;41.95
63582;BME280;49727;51.078;17.066;2023-03-16T19:18:48;100837.56;;;2.89;42.82
63582;BME280;49727;51.078;17.066;2023-03-16T19:33:52;100838.03;;;2.56;43.93
63582;BME280;49727;51.078;17.066;2023-03-16T19:48:53;100851.75;;;2.33;44.43
63582;BME280;49727;51.078;17.066;2023-03-16T20:03:53;100867.84;;;2.01;45.27
63582;BME280;49727;51.078;17.066;2023-03-16T20:18:56;100873.34;;;1.84;46.48
63582;BME280;49727;51.078;17.066;2023-03-16T20:33:57;100859.13;;;1.59;47.08
63582;BME280;49727;51.078;17.066;2023-03-16T20:48:58;100853.50;;;1.37;47.42
63582;BME280;49727;51.078;17.066;2023-03-16T21:03:59;100851.34;;;1.14;48.79
63582;BME280;49727;51.078;17.066;2023-03-16T21:19:00;100842.31;;;0.90;49.48
63582;BME280;49727;51.078;17.066;2023-03-16T21:34:00;100813.16;;;0.65;50.12
63582;BME280;49727;51.078;17.066;2023-03-16T21:49:01;100810.31;;;0.54;50.87
63582;BME280;49727;51.078;17.066;2023-03-16T22:04:07;100803.72;;;0.32;50.86
63582;BME280;49727;51.078;17.066;2023-03-16T22:19:12;100806.81;;;0.25;51.54
63582;BME280;49727;51.078;17.066;2023-03-16T22:34:27;100796.94;;;0.14;52.19
63582;BME280;49727;51.078;17.066;2023-03-16T22:49:29;100810.72;;;0.02;52.79
63582;BME280;49727;51.078;17.066;2023-03-16T23:04:29;100819.09;;;-0.08;53.12
63582;BME280;49727;51.078;17.066;2023-03-16T23:19:32;100844.88;;;-0.16;53.58
63582;BME280;49727;51.078;17.066;2023-03-16T23:34:33;100850.97;;;-0.31;53.59
63582;BME280;49727;51.078;17.066;2023-03-16T23:49:35;100818.25;;;-0.40;54.33
